sensor_id;sensor_type;location;lat;lon;timestamp;P1;durP1;ratioP1;P2;durP2;ratioP2
13321;SDS011;6730;46.248;6.930;2023-12-20T00:00:59;13.07;;;8.27;;
13321;SDS011;6730;46.248;6.930;2023-12-20T00:03:25;11.60;;;7.67;;
13321;SDS011;6730;46.248;6.930;2023-12-20T00:05:51;14.70;;;9.13;;
13321;SDS011;6730;46.248;6.930;2023-12-20T00:08:16;13.67;;;8.70;;
13321;SDS011;6730;46.248;6.930;2023-12-20T00:10:45;27.00;;;17.00;;
13321;SDS011;6730;46.248;6.930;2023-12-20T00:13:11;23.40;;;14.17;;
13321;SDS011;6730;46.248;6.930;2023-12-20T00:15:36;22.47;;;13.67;;
13321;SDS011;6730;46.248;6.930;2023-12-20T00:18:02;16.80;;;10.90;;
13321;SDS011;6730;46.248;6.930;2023-12-20T00:20:28;15.03;;;9.53;;
13321;SDS011;6730;46.248;6.930;2023-12-20T00:22:55;11.23;;;7.73;;
13321;SDS011;6730;46.248;6.930;2023-12-20T00:25:22;7.07;;;5.50;;
13321;SDS011;6730;46.248;6.930;2023-12-20T00:27:48;9.30;;;5.90;;
13321;SDS011;6730;46.248;6.930;2023-12-20T00:30:14;9.33;;;5.97;;
13321;SDS011;6730;46.248;6.930;2023-12-20T00:32:39;11.17;;;6.90;;
13321;SDS011;6730;46.248;6.930;2023-12-20T00:35:11;9.10;;;5.97;;
13321;SDS011;6730;46.248;6.930;2023-12-20T00:37:37;11.77;;;7.17;;
13321;SDS011;6730;46.248;6.930;2023-12-20T00:40:03;10.00;;;6.27;;
13321;SDS011;6730;46.248;6.930;2023-12-20T00:42:29;10.83;;;7.10;;
13321;SDS011;6730;46.248;6.930;2023-12-20T00:44:54;9.93;;;7.07;;
13321;SDS011;6730;46.248;6.930;2023-12-20T00:47:20;8.27;;;6.20;;
13321;SDS011;6730;46.248;6.930;2023-12-20T00:49:47;12.10;;;7.93;;
13321;SDS011;6730;46.248;6.930;2023-12-20T00:52:12;14.83;;;8.20;;
13321;SDS011;6730;46.248;6.930;2023-12-20T00:54:39;12.13;;;8.30;;
13321;SDS011;6730;46.248;6.930;2023-12-20T00:57:04;11.13;;;7.23;;
13321;SDS011;6730;46.248;6.930;2023-12-20T00:59:30;10.63;;;7.70;;
13321;SDS011;6730;46.248;6.930;2023-12-20T01:01:56;12.77;;;8.83;;
13321;SDS011;6730;46.248;6.930;2023-12-20T01:04:21;14.53;;;9.30;;
13321;SDS011;6730;46.248;6.930;2023-12-20T01:06:47;11.37;;;8.20;;
13321;SDS011;6730;46.248;6.930;2023-12-20T01:09:13;12.63;;;8.07;;
13321;SDS011;6730;46.248;6.930;2023-12-20T01:11:39;10.80;;;7.47;;
13321;SDS011;6730;46.248;6.930;2023-12-20T01:14:05;13.27;;;9.23;;
13321;SDS011;6730;46.248;6.930;2023-12-20T01:16:30;17.83;;;8.93;;
13321;SDS011;6730;46.248;6.930;2023-12-20T01:18:56;12.27;;;8.03;;
13321;SDS011;6730;46.248;6.930;2023-12-20T01:21:21;12.43;;;8.67;;
13321;SDS011;6730;46.248;6.930;2023-12-20T01:23:47;10.97;;;8.13;;
13321;SDS011;6730;46.248;6.930;2023-12-20T01:26:14;14.43;;;8.00;;
13321;SDS011;6730;46.248;6.930;2023-12-20T01:28:40;14.67;;;8.00;;
13321;SDS011;6730;46.248;6.930;2023-12-20T01:31:05;12.03;;;8.20;;
13321;SDS011;6730;46.248;6.930;2023-12-20T01:33:31;13.37;;;7.70;;
13321;SDS011;6730;46.248;6.930;2023-12-20T01:35:57;13.13;;;8.37;;
13321;SDS011;6730;46.248;6.930;2023-12-20T01:38:22;12.37;;;8.90;;
13321;SDS011;6730;46.248;6.930;2023-12-20T01:40:48;11.97;;;8.47;;
13321;SDS011;6730;46.248;6.930;2023-12-20T01:43:13;13.53;;;8.13;;
13321;SDS011;6730;46.248;6.930;2023-12-20T01:45:39;14.67;;;9.20;;
13321;SDS011;6730;46.248;6.930;2023-12-20T01:48:05;13.50;;;9.00;;
13321;SDS011;6730;46.248;6.930;2023-12-20T01:50:32;13.60;;;8.80;;
13321;SDS011;6730;46.248;6.930;2023-12-20T01:53:01;11.80;;;7.43;;
13321;SDS011;6730;46.248;6.930;2023-12-20T01:55:29;7.27;;;6.00;;
13321;SDS011;6730;46.248;6.930;2023-12-20T01:57:57;7.90;;;5.60;;
13321;SDS011;6730;46.248;6.930;2023-12-20T02:00:24;7.97;;;6.00;;
13321;SDS011;6730;46.248;6.930;2023-12-20T02:02:52;7.33;;;5.20;;
13321;SDS011;6730;46.248;6.930;2023-12-20T02:05:20;5.70;;;4.60;;
13321;SDS011;6730;46.248;6.930;2023-12-20T02:07:47;8.27;;;5.30;;
13321;SDS011;6730;46.248;6.930;2023-12-20T02:10:13;8.80;;;5.97;;
13321;SDS011;6730;46.248;6.930;2023-12-20T02:12:39;9.20;;;5.30;;
13321;SDS011;6730;46.248;6.930;2023-12-20T02:15:05;7.27;;;4.80;;
13321;SDS011;6730;46.248;6.930;2023-12-20T02:17:31;9.23;;;6.70;;
13321;SDS011;6730;46.248;6.930;2023-12-20T02:19:57;9.40;;;6.73;;
13321;SDS011;6730;46.248;6.930;2023-12-20T02:22:23;9.93;;;7.57;;
13321;SDS011;6730;46.248;6.930;2023-12-20T02:24:49;9.47;;;6.40;;
13321;SDS011;6730;46.248;6.930;2023-12-20T02:27:14;8.20;;;5.77;;
13321;SDS011;6730;46.248;6.930;2023-12-20T02:29:43;7.37;;;5.77;;
13321;SDS011;6730;46.248;6.930;2023-12-20T02:32:08;9.60;;;6.50;;
13321;SDS011;6730;46.248;6.930;2023-12-20T02:34:34;7.60;;;5.60;;
13321;SDS011;6730;46.248;6.930;2023-12-20T02:36:59;9.30;;;5.37;;
13321;SDS011;6730;46.248;6.930;2023-12-20T02:39:25;11.80;;;6.27;;
13321;SDS011;6730;46.248;6.930;2023-12-20T02:41:51;7.00;;;5.20;;
13321;SDS011;6730;46.248;6.930;2023-12-20T02:44:17;7.50;;;4.83;;
13321;SDS011;6730;46.248;6.930;2023-12-20T02:46:43;7.53;;;4.67;;
13321;SDS011;6730;46.248;6.930;2023-12-20T02:49:08;6.43;;;3.23;;
13321;SDS011;6730;46.248;6.930;2023-12-20T02:51:34;7.27;;;4.97;;
13321;SDS011;6730;46.248;6.930;2023-12-20T02:53:59;4.03;;;3.07;;
13321;SDS011;6730;46.248;6.930;2023-12-20T02:56:25;5.10;;;3.47;;
13321;SDS011;6730;46.248;6.930;2023-12-20T02:58:51;5.27;;;4.00;;
13321;SDS011;6730;46.248;6.930;2023-12-20T03:01:16;4.13;;;3.23;;
13321;SDS011;6730;46.248;6.930;2023-12-20T03:03:42;6.37;;;3.87;;
13321;SDS011;6730;46.248;6.930;2023-12-20T03:06:08;6.70;;;4.90;;
13321;SDS011;6730;46.248;6.930;2023-12-20T03:08:33;7.10;;;5.10;;
13321;SDS011;6730;46.248;6.930;2023-12-20T03:10:59;8.53;;;5.87;;
13321;SDS011;6730;46.248;6.930;2023-12-20T03:13:25;8.47;;;5.83;;
13321;SDS011;6730;46.248;6.930;2023-12-20T03:15:50;8.07;;;6.27;;
13321;SDS011;6730;46.248;6.930;2023-12-20T03:18:16;7.37;;;4.93;;
13321;SDS011;6730;46.248;6.930;2023-12-20T03:20:43;6.23;;;4.70;;
13321;SDS011;6730;46.248;6.930;2023-12-20T03:23:09;8.27;;;4.97;;
13321;SDS011;6730;46.248;6.930;2023-12-20T03:25:34;6.40;;;5.10;;
13321;SDS011;6730;46.248;6.930;2023-12-20T03:28:00;7.63;;;5.07;;
13321;SDS011;6730;46.248;6.930;2023-12-20T03:30:26;9.43;;;6.10;;
13321;SDS011;6730;46.248;6.930;2023-12-20T03:32:51;8.07;;;5.23;;
13321;SDS011;6730;46.248;6.930;2023-12-20T03:35:17;10.60;;;6.97;;
13321;SDS011;6730;46.248;6.930;2023-12-20T03:37:42;8.97;;;5.80;;
13321;SDS011;6730;46.248;6.930;2023-12-20T03:40:08;9.07;;;6.37;;
13321;SDS011;6730;46.248;6.930;2023-12-20T03:42:34;10.80;;;6.63;;
13321;SDS011;6730;46.248;6.930;2023-12-20T03:45:00;9.97;;;6.27;;
13321;SDS011;6730;46.248;6.930;2023-12-20T03:47:26;7.90;;;6.17;;
13321;SDS011;6730;46.248;6.930;2023-12-20T03:49:51;8.40;;;5.87;;
13321;SDS011;6730;46.248;6.930;2023-12-20T03:52:18;10.00;;;6.93;;
13321;SDS011;6730;46.248;6.930;2023-12-20T03:54:43;11.27;;;7.27;;
13321;SDS011;6730;46.248;6.930;2023-12-20T03:57:09;9.97;;;7.27;;
13321;SDS011;6730;46.248;6.930;2023-12-20T03:59:36;9.80;;;6.70;;
13321;SDS011;6730;46.248;6.930;2023-12-20T04:02:02;10.63;;;7.93;;
13321;SDS011;6730;46.248;6.930;2023-12-20T04:04:28;11.03;;;7.13;;
13321;SDS011;6730;46.248;6.930;2023-12-20T04:06:54;10.90;;;7.27;;
13321;SDS011;6730;46.248;6.930;2023-12-20T04:09:19;10.57;;;7.07;;
13321;SDS011;6730;46.248;6.930;2023-12-20T04:11:45;7.77;;;6.07;;
13321;SDS011;6730;46.248;6.930;2023-12-20T04:14:11;8.60;;;5.90;;
13321;SDS011;6730;46.248;6.930;2023-12-20T04:16:36;9.23;;;6.13;;
13321;SDS011;6730;46.248;6.930;2023-12-20T04:19:02;9.27;;;5.93;;
13321;SDS011;6730;46.248;6.930;2023-12-20T04:21:28;8.23;;;5.83;;
13321;SDS011;6730;46.248;6.930;2023-12-20T04:23:53;7.70;;;5.50;;
13321;SDS011;6730;46.248;6.930;2023-12-20T04:26:19;6.27;;;4.43;;
13321;SDS011;6730;46.248;6.930;2023-12-20T04:28:45;8.63;;;5.47;;
13321;SDS011;6730;46.248;6.930;2023-12-20T04:31:10;7.73;;;5.40;;
13321;SDS011;6730;46.248;6.930;2023-12-20T04:33:36;9.97;;;5.20;;
13321;SDS011;6730;46.248;6.930;2023-12-20T04:36:01;8.47;;;5.87;;
13321;SDS011;6730;46.248;6.930;2023-12-20T04:38:28;7.10;;;5.20;;
13321;SDS011;6730;46.248;6.930;2023-12-20T04:40:53;7.43;;;5.40;;
13321;SDS011;6730;46.248;6.930;2023-12-20T04:43:19;8.40;;;5.80;;
13321;SDS011;6730;46.248;6.930;2023-12-20T04:45:45;8.00;;;5.93;;
13321;SDS011;6730;46.248;6.930;2023-12-20T04:48:10;7.07;;;5.17;;
13321;SDS011;6730;46.248;6.930;2023-12-20T04:50:37;7.53;;;5.70;;
13321;SDS011;6730;46.248;6.930;2023-12-20T04:53:02;7.80;;;5.60;;
13321;SDS011;6730;46.248;6.930;2023-12-20T04:55:28;8.63;;;5.43;;
13321;SDS011;6730;46.248;6.930;2023-12-20T04:57:54;7.87;;;5.53;;
13321;SDS011;6730;46.248;6.930;2023-12-20T05:00:20;7.53;;;5.60;;
13321;SDS011;6730;46.248;6.930;2023-12-20T05:02:45;7.40;;;4.90;;
13321;SDS011;6730;46.248;6.930;2023-12-20T05:05:11;8.43;;;5.27;;
13321;SDS011;6730;46.248;6.930;2023-12-20T05:07:37;9.27;;;6.60;;
13321;SDS011;6730;46.248;6.930;2023-12-20T05:10:03;8.33;;;5.93;;
13321;SDS011;6730;46.248;6.930;2023-12-20T05:12:33;8.23;;;5.73;;
13321;SDS011;6730;46.248;6.930;2023-12-20T05:14:59;6.53;;;4.57;;
13321;SDS011;6730;46.248;6.930;2023-12-20T05:17:25;9.57;;;5.97;;
13321;SDS011;6730;46.248;6.930;2023-12-20T05:19:51;10.20;;;6.90;;
13321;SDS011;6730;46.248;6.930;2023-12-20T05:22:16;8.23;;;5.83;;
13321;SDS011;6730;46.248;6.930;2023-12-20T05:24:43;8.47;;;6.43;;
13321;SDS011;6730;46.248;6.930;2023-12-20T05:27:09;10.13;;;6.73;;
13321;SDS011;6730;46.248;6.930;2023-12-20T05:29:34;12.17;;;7.67;;
13321;SDS011;6730;46.248;6.930;2023-12-20T05:32:00;9.87;;;7.00;;
13321;SDS011;6730;46.248;6.930;2023-12-20T05:34:25;8.67;;;5.77;;
13321;SDS011;6730;46.248;6.930;2023-12-20T05:36:51;11.83;;;6.83;;
13321;SDS011;6730;46.248;6.930;2023-12-20T05:39:17;8.77;;;6.60;;
13321;SDS011;6730;46.248;6.930;2023-12-20T05:41:43;11.10;;;7.53;;
13321;SDS011;6730;46.248;6.930;2023-12-20T05:44:08;10.73;;;7.53;;
13321;SDS011;6730;46.248;6.930;2023-12-20T05:46:35;11.07;;;7.33;;
13321;SDS011;6730;46.248;6.930;2023-12-20T05:49:01;10.87;;;7.90;;
13321;SDS011;6730;46.248;6.930;2023-12-20T05:51:27;11.43;;;7.40;;
13321;SDS011;6730;46.248;6.930;2023-12-20T05:53:52;9.63;;;7.57;;
13321;SDS011;6730;46.248;6.930;2023-12-20T05:56:18;9.73;;;6.50;;
13321;SDS011;6730;46.248;6.930;2023-12-20T05:58:44;7.60;;;6.07;;
13321;SDS011;6730;46.248;6.930;2023-12-20T06:01:09;7.10;;;4.87;;
13321;SDS011;6730;46.248;6.930;2023-12-20T06:03:35;5.83;;;4.17;;
13321;SDS011;6730;46.248;6.930;2023-12-20T06:06:05;3.70;;;2.50;;
13321;SDS011;6730;46.248;6.930;2023-12-20T06:08:32;3.50;;;3.20;;
13321;SDS011;6730;46.248;6.930;2023-12-20T06:10:57;5.63;;;2.43;;
13321;SDS011;6730;46.248;6.930;2023-12-20T06:13:23;3.50;;;2.70;;
13321;SDS011;6730;46.248;6.930;2023-12-20T06:15:48;3.53;;;2.30;;
13321;SDS011;6730;46.248;6.930;2023-12-20T06:18:14;2.27;;;1.80;;
13321;SDS011;6730;46.248;6.930;2023-12-20T06:20:40;2.37;;;1.97;;
13321;SDS011;6730;46.248;6.930;2023-12-20T06:23:05;2.77;;;1.90;;
13321;SDS011;6730;46.248;6.930;2023-12-20T06:25:31;4.33;;;1.47;;
13321;SDS011;6730;46.248;6.930;2023-12-20T06:27:57;2.20;;;1.80;;
13321;SDS011;6730;46.248;6.930;2023-12-20T06:30:22;1.90;;;1.40;;
13321;SDS011;6730;46.248;6.930;2023-12-20T06:32:49;2.00;;;1.80;;
13321;SDS011;6730;46.248;6.930;2023-12-20T06:35:15;2.27;;;1.87;;
13321;SDS011;6730;46.248;6.930;2023-12-20T06:37:41;3.00;;;2.10;;
13321;SDS011;6730;46.248;6.930;2023-12-20T06:40:08;3.77;;;2.90;;
13321;SDS011;6730;46.248;6.930;2023-12-20T06:42:35;4.30;;;2.87;;
13321;SDS011;6730;46.248;6.930;2023-12-20T06:45:01;3.40;;;2.50;;
13321;SDS011;6730;46.248;6.930;2023-12-20T06:47:27;3.93;;;2.50;;
13321;SDS011;6730;46.248;6.930;2023-12-20T06:49:52;3.13;;;2.73;;
13321;SDS011;6730;46.248;6.930;2023-12-20T06:52:18;3.67;;;2.50;;
13321;SDS011;6730;46.248;6.930;2023-12-20T06:54:44;4.03;;;3.00;;
13321;SDS011;6730;46.248;6.930;2023-12-20T06:57:09;3.80;;;2.50;;
13321;SDS011;6730;46.248;6.930;2023-12-20T06:59:41;3.73;;;2.23;;
13321;SDS011;6730;46.248;6.930;2023-12-20T07:02:08;2.50;;;2.30;;
13321;SDS011;6730;46.248;6.930;2023-12-20T07:04:34;1.73;;;1.63;;
13321;SDS011;6730;46.248;6.930;2023-12-20T07:07:04;2.20;;;1.80;;
13321;SDS011;6730;46.248;6.930;2023-12-20T07:09:29;1.47;;;1.30;;
13321;SDS011;6730;46.248;6.930;2023-12-20T07:11:55;1.50;;;1.40;;
13321;SDS011;6730;46.248;6.930;2023-12-20T07:14:20;1.53;;;1.40;;
13321;SDS011;6730;46.248;6.930;2023-12-20T07:16:46;1.33;;;1.10;;
13321;SDS011;6730;46.248;6.930;2023-12-20T07:19:12;2.07;;;1.10;;
13321;SDS011;6730;46.248;6.930;2023-12-20T07:21:38;1.67;;;1.40;;
13321;SDS011;6730;46.248;6.930;2023-12-20T07:24:04;1.47;;;1.20;;
13321;SDS011;6730;46.248;6.930;2023-12-20T07:26:29;1.70;;;1.20;;
13321;SDS011;6730;46.248;6.930;2023-12-20T07:28:55;1.53;;;1.27;;
13321;SDS011;6730;46.248;6.930;2023-12-20T07:31:21;0.77;;;0.77;;
13321;SDS011;6730;46.248;6.930;2023-12-20T07:33:46;1.33;;;1.03;;
13321;SDS011;6730;46.248;6.930;2023-12-20T07:36:12;1.40;;;1.20;;
13321;SDS011;6730;46.248;6.930;2023-12-20T07:38:38;1.20;;;0.97;;
13321;SDS011;6730;46.248;6.930;2023-12-20T07:41:03;1.00;;;0.70;;
13321;SDS011;6730;46.248;6.930;2023-12-20T07:43:30;0.83;;;0.80;;
13321;SDS011;6730;46.248;6.930;2023-12-20T07:45:55;4.20;;;2.73;;
13321;SDS011;6730;46.248;6.930;2023-12-20T07:48:21;4.53;;;2.73;;
13321;SDS011;6730;46.248;6.930;2023-12-20T07:50:47;1.67;;;1.40;;
13321;SDS011;6730;46.248;6.930;2023-12-20T07:53:12;3.07;;;1.50;;
13321;SDS011;6730;46.248;6.930;2023-12-20T07:55:39;1.30;;;1.00;;
13321;SDS011;6730;46.248;6.930;2023-12-20T07:58:05;2.67;;;2.30;;
13321;SDS011;6730;46.248;6.930;2023-12-20T08:00:31;3.50;;;2.50;;
13321;SDS011;6730;46.248;6.930;2023-12-20T08:02:56;3.90;;;2.70;;
13321;SDS011;6730;46.248;6.930;2023-12-20T08:05:22;2.13;;;1.90;;
13321;SDS011;6730;46.248;6.930;2023-12-20T08:07:48;2.23;;;1.87;;
13321;SDS011;6730;46.248;6.930;2023-12-20T08:10:13;2.63;;;1.83;;
13321;SDS011;6730;46.248;6.930;2023-12-20T08:12:39;2.10;;;1.70;;
13321;SDS011;6730;46.248;6.930;2023-12-20T08:15:05;1.90;;;1.37;;
13321;SDS011;6730;46.248;6.930;2023-12-20T08:17:31;2.07;;;1.60;;
13321;SDS011;6730;46.248;6.930;2023-12-20T08:19:57;0.87;;;0.87;;
13321;SDS011;6730;46.248;6.930;2023-12-20T08:22:22;1.03;;;0.97;;
13321;SDS011;6730;46.248;6.930;2023-12-20T08:24:48;1.40;;;0.97;;
13321;SDS011;6730;46.248;6.930;2023-12-20T08:27:14;0.90;;;0.77;;
13321;SDS011;6730;46.248;6.930;2023-12-20T08:29:40;0.77;;;0.77;;
13321;SDS011;6730;46.248;6.930;2023-12-20T08:32:05;0.43;;;0.43;;
13321;SDS011;6730;46.248;6.930;2023-12-20T08:34:31;0.60;;;0.60;;
13321;SDS011;6730;46.248;6.930;2023-12-20T08:36:57;1.10;;;1.00;;
13321;SDS011;6730;46.248;6.930;2023-12-20T08:39:22;0.90;;;0.90;;
13321;SDS011;6730;46.248;6.930;2023-12-20T08:41:48;1.33;;;0.90;;
13321;SDS011;6730;46.248;6.930;2023-12-20T08:44:14;0.97;;;0.87;;
13321;SDS011;6730;46.248;6.930;2023-12-20T08:46:40;1.13;;;0.90;;
13321;SDS011;6730;46.248;6.930;2023-12-20T08:49:05;0.80;;;0.60;;
13321;SDS011;6730;46.248;6.930;2023-12-20T08:51:32;2.90;;;1.13;;
13321;SDS011;6730;46.248;6.930;2023-12-20T08:53:58;1.83;;;1.47;;
13321;SDS011;6730;46.248;6.930;2023-12-20T08:56:24;1.83;;;1.47;;
13321;SDS011;6730;46.248;6.930;2023-12-20T08:58:49;1.43;;;1.30;;
13321;SDS011;6730;46.248;6.930;2023-12-20T09:01:15;1.30;;;0.90;;
13321;SDS011;6730;46.248;6.930;2023-12-20T09:03:41;1.10;;;1.00;;
13321;SDS011;6730;46.248;6.930;2023-12-20T09:06:06;1.00;;;0.90;;
13321;SDS011;6730;46.248;6.930;2023-12-20T09:08:32;1.57;;;1.27;;
13321;SDS011;6730;46.248;6.930;2023-12-20T09:10:59;1.17;;;1.07;;
13321;SDS011;6730;46.248;6.930;2023-12-20T09:13:25;3.37;;;2.77;;
13321;SDS011;6730;46.248;6.930;2023-12-20T09:15:54;1.27;;;1.10;;
13321;SDS011;6730;46.248;6.930;2023-12-20T09:18:20;5.40;;;3.73;;
13321;SDS011;6730;46.248;6.930;2023-12-20T09:20:46;9.63;;;5.80;;
13321;SDS011;6730;46.248;6.930;2023-12-20T09:23:11;2.77;;;2.30;;
13321;SDS011;6730;46.248;6.930;2023-12-20T09:25:37;4.03;;;2.30;;
13321;SDS011;6730;46.248;6.930;2023-12-20T09:28:03;0.63;;;0.63;;
13321;SDS011;6730;46.248;6.930;2023-12-20T09:30:29;0.50;;;0.50;;
13321;SDS011;6730;46.248;6.930;2023-12-20T09:32:54;4.60;;;3.40;;
13321;SDS011;6730;46.248;6.930;2023-12-20T09:35:20;2.63;;;1.40;;
13321;SDS011;6730;46.248;6.930;2023-12-20T09:37:46;1.60;;;1.37;;
13321;SDS011;6730;46.248;6.930;2023-12-20T09:40:12;1.57;;;1.40;;
13321;SDS011;6730;46.248;6.930;2023-12-20T09:42:48;2.13;;;1.70;;
13321;SDS011;6730;46.248;6.930;2023-12-20T09:45:23;2.13;;;1.70;;
13321;SDS011;6730;46.248;6.930;2023-12-20T09:47:52;1.70;;;1.50;;
13321;SDS011;6730;46.248;6.930;2023-12-20T09:50:19;3.03;;;2.60;;
13321;SDS011;6730;46.248;6.930;2023-12-20T09:52:47;2.33;;;2.07;;
13321;SDS011;6730;46.248;6.930;2023-12-20T09:55:16;2.22;;;1.60;;
13321;SDS011;6730;46.248;6.930;2023-12-20T09:57:44;1.60;;;1.40;;
13321;SDS011;6730;46.248;6.930;2023-12-20T10:00:10;1.42;;;1.05;;
13321;SDS011;6730;46.248;6.930;2023-12-20T10:02:38;2.50;;;1.77;;
13321;SDS011;6730;46.248;6.930;2023-12-20T10:05:10;1.17;;;1.02;;
13321;SDS011;6730;46.248;6.930;2023-12-20T10:07:41;1.20;;;1.10;;
13321;SDS011;6730;46.248;6.930;2023-12-20T10:10:07;1.00;;;0.90;;
13321;SDS011;6730;46.248;6.930;2023-12-20T10:12:34;1.10;;;1.00;;
13321;SDS011;6730;46.248;6.930;2023-12-20T10:14:59;1.50;;;1.40;;
13321;SDS011;6730;46.248;6.930;2023-12-20T10:17:25;1.90;;;1.70;;
13321;SDS011;6730;46.248;6.930;2023-12-20T10:19:54;2.10;;;1.80;;
13321;SDS011;6730;46.248;6.930;2023-12-20T10:22:19;2.47;;;1.73;;
13321;SDS011;6730;46.248;6.930;2023-12-20T10:24:46;2.50;;;1.75;;
13321;SDS011;6730;46.248;6.930;2023-12-20T10:27:12;3.47;;;2.63;;
13321;SDS011;6730;46.248;6.930;2023-12-20T10:29:37;2.05;;;1.45;;
13321;SDS011;6730;46.248;6.930;2023-12-20T10:34:53;4.30;;;3.17;;
13321;SDS011;6730;46.248;6.930;2023-12-20T10:37:20;3.20;;;2.63;;
13321;SDS011;6730;46.248;6.930;2023-12-20T10:39:52;3.80;;;2.20;;
13321;SDS011;6730;46.248;6.930;2023-12-20T10:42:22;3.97;;;2.40;;
13321;SDS011;6730;46.248;6.930;2023-12-20T10:44:51;3.72;;;2.78;;
13321;SDS011;6730;46.248;6.930;2023-12-20T10:47:19;7.88;;;5.28;;
13321;SDS011;6730;46.248;6.930;2023-12-20T10:49:47;8.10;;;6.47;;
13321;SDS011;6730;46.248;6.930;2023-12-20T10:52:14;5.87;;;4.33;;
13321;SDS011;6730;46.248;6.930;2023-12-20T10:54:42;8.63;;;6.20;;
13321;SDS011;6730;46.248;6.930;2023-12-20T10:57:09;9.70;;;5.77;;
13321;SDS011;6730;46.248;6.930;2023-12-20T10:59:38;6.53;;;4.07;;
13321;SDS011;6730;46.248;6.930;2023-12-20T11:02:05;5.77;;;4.00;;
13321;SDS011;6730;46.248;6.930;2023-12-20T11:04:35;6.83;;;4.40;;
13321;SDS011;6730;46.248;6.930;2023-12-20T11:07:46;7.93;;;5.10;;
13321;SDS011;6730;46.248;6.930;2023-12-20T11:10:17;3.40;;;3.10;;
13321;SDS011;6730;46.248;6.930;2023-12-20T11:12:46;6.30;;;4.00;;
13321;SDS011;6730;46.248;6.930;2023-12-20T11:15:16;5.50;;;4.00;;
13321;SDS011;6730;46.248;6.930;2023-12-20T11:17:44;5.63;;;4.17;;
13321;SDS011;6730;46.248;6.930;2023-12-20T11:20:11;5.10;;;4.17;;
13321;SDS011;6730;46.248;6.930;2023-12-20T11:22:38;6.43;;;3.57;;
13321;SDS011;6730;46.248;6.930;2023-12-20T11:25:16;3.27;;;2.57;;
13321;SDS011;6730;46.248;6.930;2023-12-20T11:27:42;5.37;;;4.10;;
13321;SDS011;6730;46.248;6.930;2023-12-20T11:30:08;3.07;;;2.40;;
13321;SDS011;6730;46.248;6.930;2023-12-20T11:32:35;1.50;;;1.27;;
13321;SDS011;6730;46.248;6.930;2023-12-20T11:37:37;2.00;;;1.77;;
13321;SDS011;6730;46.248;6.930;2023-12-20T11:40:08;2.00;;;1.53;;
13321;SDS011;6730;46.248;6.930;2023-12-20T11:42:49;2.37;;;2.00;;
13321;SDS011;6730;46.248;6.930;2023-12-20T11:45:17;3.33;;;2.00;;
13321;SDS011;6730;46.248;6.930;2023-12-20T11:47:46;4.43;;;3.60;;
13321;SDS011;6730;46.248;6.930;2023-12-20T11:50:17;4.40;;;3.60;;
13321;SDS011;6730;46.248;6.930;2023-12-20T11:52:43;6.30;;;4.30;;
13321;SDS011;6730;46.248;6.930;2023-12-20T11:55:09;8.90;;;5.20;;
13321;SDS011;6730;46.248;6.930;2023-12-20T11:57:35;5.60;;;3.70;;
13321;SDS011;6730;46.248;6.930;2023-12-20T12:00:01;4.87;;;3.87;;
13321;SDS011;6730;46.248;6.930;2023-12-20T12:02:28;7.13;;;4.43;;
13321;SDS011;6730;46.248;6.930;2023-12-20T12:04:53;3.13;;;2.40;;
13321;SDS011;6730;46.248;6.930;2023-12-20T12:07:21;3.10;;;2.50;;
13321;SDS011;6730;46.248;6.930;2023-12-20T12:09:47;4.10;;;3.57;;
13321;SDS011;6730;46.248;6.930;2023-12-20T12:12:13;4.10;;;2.80;;
13321;SDS011;6730;46.248;6.930;2023-12-20T12:14:39;3.43;;;3.10;;
13321;SDS011;6730;46.248;6.930;2023-12-20T12:17:14;6.47;;;3.37;;
13321;SDS011;6730;46.248;6.930;2023-12-20T12:19:49;5.97;;;4.63;;
13321;SDS011;6730;46.248;6.930;2023-12-20T12:22:15;6.03;;;3.90;;
13321;SDS011;6730;46.248;6.930;2023-12-20T12:24:42;4.63;;;3.37;;
13321;SDS011;6730;46.248;6.930;2023-12-20T12:27:09;4.47;;;3.20;;
13321;SDS011;6730;46.248;6.930;2023-12-20T12:29:35;4.43;;;3.80;;
13321;SDS011;6730;46.248;6.930;2023-12-20T12:32:05;5.93;;;3.87;;
13321;SDS011;6730;46.248;6.930;2023-12-20T12:34:32;5.77;;;4.50;;
13321;SDS011;6730;46.248;6.930;2023-12-20T12:36:59;8.20;;;5.83;;
13321;SDS011;6730;46.248;6.930;2023-12-20T12:39:25;27.57;;;8.37;;
13321;SDS011;6730;46.248;6.930;2023-12-20T12:41:51;18.63;;;7.77;;
13321;SDS011;6730;46.248;6.930;2023-12-20T12:44:17;5.30;;;4.20;;
13321;SDS011;6730;46.248;6.930;2023-12-20T12:46:43;9.07;;;6.57;;
13321;SDS011;6730;46.248;6.930;2023-12-20T12:49:12;60.13;;;10.87;;
13321;SDS011;6730;46.248;6.930;2023-12-20T12:51:38;15.37;;;7.03;;
13321;SDS011;6730;46.248;6.930;2023-12-20T12:54:04;6.17;;;5.07;;
13321;SDS011;6730;46.248;6.930;2023-12-20T12:56:30;6.53;;;4.77;;
13321;SDS011;6730;46.248;6.930;2023-12-20T12:58:55;11.83;;;5.57;;
13321;SDS011;6730;46.248;6.930;2023-12-20T13:01:21;9.97;;;5.43;;
13321;SDS011;6730;46.248;6.930;2023-12-20T13:03:47;7.33;;;5.10;;
13321;SDS011;6730;46.248;6.930;2023-12-20T13:06:12;7.07;;;4.23;;
13321;SDS011;6730;46.248;6.930;2023-12-20T13:08:38;6.00;;;4.23;;
13321;SDS011;6730;46.248;6.930;2023-12-20T13:11:04;8.53;;;4.20;;
13321;SDS011;6730;46.248;6.930;2023-12-20T13:13:30;6.03;;;4.20;;
13321;SDS011;6730;46.248;6.930;2023-12-20T13:15:56;5.83;;;3.90;;
13321;SDS011;6730;46.248;6.930;2023-12-20T13:18:22;5.40;;;3.10;;
13321;SDS011;6730;46.248;6.930;2023-12-20T13:20:48;6.07;;;3.73;;
13321;SDS011;6730;46.248;6.930;2023-12-20T13:23:14;3.73;;;3.10;;
13321;SDS011;6730;46.248;6.930;2023-12-20T13:25:41;4.73;;;3.17;;
13321;SDS011;6730;46.248;6.930;2023-12-20T13:28:07;4.30;;;3.03;;
13321;SDS011;6730;46.248;6.930;2023-12-20T13:30:33;3.93;;;3.50;;
13321;SDS011;6730;46.248;6.930;2023-12-20T13:32:59;4.93;;;3.10;;
13321;SDS011;6730;46.248;6.930;2023-12-20T13:35:25;5.17;;;3.70;;
13321;SDS011;6730;46.248;6.930;2023-12-20T13:37:50;4.77;;;4.03;;
13321;SDS011;6730;46.248;6.930;2023-12-20T13:40:16;3.83;;;3.30;;
13321;SDS011;6730;46.248;6.930;2023-12-20T13:42:43;6.27;;;3.40;;
13321;SDS011;6730;46.248;6.930;2023-12-20T13:45:08;3.80;;;3.27;;
13321;SDS011;6730;46.248;6.930;2023-12-20T13:47:34;4.07;;;2.60;;
13321;SDS011;6730;46.248;6.930;2023-12-20T13:50:00;3.30;;;2.57;;
13321;SDS011;6730;46.248;6.930;2023-12-20T13:52:26;2.67;;;2.33;;
13321;SDS011;6730;46.248;6.930;2023-12-20T13:54:51;2.20;;;2.00;;
13321;SDS011;6730;46.248;6.930;2023-12-20T13:57:17;2.30;;;1.80;;
13321;SDS011;6730;46.248;6.930;2023-12-20T13:59:43;2.57;;;2.13;;
13321;SDS011;6730;46.248;6.930;2023-12-20T14:02:08;2.77;;;2.00;;
13321;SDS011;6730;46.248;6.930;2023-12-20T14:04:34;3.73;;;2.80;;
13321;SDS011;6730;46.248;6.930;2023-12-20T14:07:00;5.57;;;4.10;;
13321;SDS011;6730;46.248;6.930;2023-12-20T14:09:26;3.30;;;2.73;;
13321;SDS011;6730;46.248;6.930;2023-12-20T14:11:52;44.03;;;8.43;;
13321;SDS011;6730;46.248;6.930;2023-12-20T14:14:17;6.30;;;4.30;;
13321;SDS011;6730;46.248;6.930;2023-12-20T14:16:43;77.93;;;9.70;;
13321;SDS011;6730;46.248;6.930;2023-12-20T14:19:10;5.67;;;3.93;;
13321;SDS011;6730;46.248;6.930;2023-12-20T14:21:36;5.40;;;4.00;;
13321;SDS011;6730;46.248;6.930;2023-12-20T14:24:02;38.90;;;8.47;;
13321;SDS011;6730;46.248;6.930;2023-12-20T14:26:29;6.43;;;4.50;;
13321;SDS011;6730;46.248;6.930;2023-12-20T14:28:55;4.20;;;2.80;;
13321;SDS011;6730;46.248;6.930;2023-12-20T14:31:20;3.70;;;3.00;;
13321;SDS011;6730;46.248;6.930;2023-12-20T14:33:48;4.10;;;2.83;;
13321;SDS011;6730;46.248;6.930;2023-12-20T14:36:15;2.93;;;2.40;;
13321;SDS011;6730;46.248;6.930;2023-12-20T14:38:42;3.50;;;2.97;;
13321;SDS011;6730;46.248;6.930;2023-12-20T14:41:09;2.77;;;2.13;;
13321;SDS011;6730;46.248;6.930;2023-12-20T14:43:34;3.10;;;2.27;;
13321;SDS011;6730;46.248;6.930;2023-12-20T14:46:00;3.13;;;2.10;;
13321;SDS011;6730;46.248;6.930;2023-12-20T14:48:26;2.27;;;1.87;;
13321;SDS011;6730;46.248;6.930;2023-12-20T14:50:53;3.00;;;2.20;;
13321;SDS011;6730;46.248;6.930;2023-12-20T14:53:18;4.57;;;1.90;;
13321;SDS011;6730;46.248;6.930;2023-12-20T14:55:44;2.40;;;2.00;;
13321;SDS011;6730;46.248;6.930;2023-12-20T14:58:11;2.10;;;1.90;;